createdAt,value
2022-09-23T00:01:15.912Z,8.74
2022-09-23T00:03:45.660Z,8.72
2022-09-23T00:06:19.977Z,8.66
2022-09-23T00:08:49.642Z,8.75
2022-09-23T00:11:25.846Z,8.70
2022-09-23T00:13:59.282Z,8.67
2022-09-23T00:16:31.169Z,8.64
2022-09-23T00:18:58.471Z,8.67
2022-09-23T00:21:25.412Z,8.56
2022-09-23T00:23:52.785Z,8.57
2022-09-23T00:26:22.191Z,8.53
2022-09-23T00:28:50.472Z,8.47
2022-09-23T00:31:22.605Z,8.48
2022-09-23T00:33:56.740Z,8.44
2022-09-23T00:36:24.837Z,8.47
2022-09-23T00:38:52.206Z,8.48
2022-09-23T00:41:19.465Z,8.66
2022-09-23T00:43:57.107Z,8.49
2022-09-23T00:46:36.527Z,8.50
2022-09-23T00:49:22.748Z,8.38
2022-09-23T00:51:56.788Z,8.26
2022-09-23T00:54:27.389Z,8.36
2022-09-23T00:56:57.023Z,8.46
2022-09-23T00:59:26.175Z,8.38
2022-09-23T01:01:55.611Z,8.38
2022-09-23T01:04:25.257Z,8.41
2022-09-23T01:06:52.227Z,8.41
2022-09-23T01:09:20.591Z,8.43
2022-09-23T01:12:06.014Z,8.56
2022-09-23T01:14:48.739Z,8.53
2022-09-23T01:17:30.447Z,8.60
2022-09-23T01:20:42.012Z,8.65
2022-09-23T01:23:42.674Z,8.61
2022-09-23T01:26:51.844Z,8.73
2022-09-23T01:29:37.545Z,8.77
2022-09-23T01:32:37.719Z,8.75
2022-09-23T01:35:23.769Z,8.84
2022-09-23T01:38:29.031Z,8.90
2022-09-23T01:41:25.807Z,8.91
2022-09-23T01:44:10.739Z,8.92
2022-09-23T01:47:18.850Z,9.11
2022-09-23T01:50:00.416Z,9.07
2022-09-23T01:52:44.560Z,8.91
2022-09-23T01:55:23.947Z,9.00
2022-09-23T01:58:09.901Z,9.03
2022-09-23T02:00:44.415Z,8.95
2022-09-23T02:03:27.806Z,8.83
2022-09-23T02:06:02.135Z,8.76
2022-09-23T02:08:42.517Z,8.81
2022-09-23T02:11:14.139Z,8.73
2022-09-23T02:14:14.536Z,8.77
2022-09-23T02:16:58.395Z,8.65
2022-09-23T02:19:51.543Z,8.68
2022-09-23T02:23:04.355Z,8.70
2022-09-23T02:25:55.344Z,8.73
2022-09-23T02:28:51.888Z,8.68
2022-09-23T02:31:41.836Z,8.66
2022-09-23T02:34:30.818Z,8.54
2022-09-23T02:37:44.735Z,8.53
2022-09-23T02:40:38.070Z,8.57
2022-09-23T02:43:35.688Z,8.44
2022-09-23T02:46:04.957Z,8.60
2022-09-23T02:48:56.745Z,8.40
2022-09-23T02:51:28.903Z,8.46
2022-09-23T02:53:57.802Z,8.51
2022-09-23T02:56:25.087Z,8.47
2022-09-23T02:58:54.404Z,8.40
2022-09-23T03:01:53.022Z,8.46
2022-09-23T03:04:53.917Z,8.62
2022-09-23T03:07:51.291Z,8.53
2022-09-23T03:10:33.805Z,8.61
2022-09-23T03:13:28.627Z,8.57
2022-09-23T03:16:32.633Z,8.35
2022-09-23T03:19:19.742Z,8.50
2022-09-23T03:22:14.073Z,8.49
2022-09-23T03:24:45.142Z,8.55
2022-09-23T03:27:22.005Z,8.51
2022-09-23T03:29:52.065Z,8.53
2022-09-23T03:32:23.611Z,8.60
2022-09-23T03:34:54.829Z,8.61
2022-09-23T03:37:44.770Z,8.47
2022-09-23T03:40:24.141Z,8.69
2022-09-23T03:42:52.220Z,8.41
2022-09-23T03:45:26.691Z,8.35
2022-09-23T03:47:53.713Z,8.24
2022-09-23T03:50:21.389Z,8.28
2022-09-23T03:52:49.758Z,8.21
2022-09-23T03:55:18.230Z,8.23
2022-09-23T03:57:45.539Z,8.13
2022-09-23T04:00:15.028Z,8.09
2022-09-23T04:02:42.624Z,8.10
2022-09-23T04:05:11.786Z,7.97
2022-09-23T04:07:38.908Z,8.07
2022-09-23T04:10:07.441Z,8.15
2022-09-23T04:12:34.390Z,8.09
2022-09-23T04:15:01.459Z,7.99
2022-09-23T04:17:28.541Z,8.14
2022-09-23T04:19:55.580Z,7.97
2022-09-23T04:22:22.553Z,7.89
2022-09-23T04:24:49.483Z,7.75
2022-09-23T04:27:16.730Z,7.89
2022-09-23T04:29:43.676Z,8.02
2022-09-23T04:32:10.792Z,7.93
2022-09-23T04:34:37.786Z,7.97
2022-09-23T04:37:04.866Z,8.05
2022-09-23T04:39:31.898Z,8.16
2022-09-23T04:41:59.783Z,8.11
2022-09-23T04:44:28.344Z,7.97
2022-09-23T04:46:55.362Z,8.14
2022-09-23T04:49:23.588Z,8.32
2022-09-23T04:51:50.493Z,8.15
2022-09-23T04:54:17.460Z,8.89
2022-09-23T04:56:44.411Z,9.92
2022-09-23T04:59:11.472Z,11.69
2022-09-23T05:01:38.729Z,12.83
2022-09-23T05:04:11.052Z,14.09
2022-09-23T05:06:38.359Z,14.85
2022-09-23T05:09:08.896Z,15.21
2022-09-23T05:11:36.397Z,16.24
2022-09-23T05:14:03.413Z,16.72
2022-09-23T05:16:30.410Z,16.54
2022-09-23T05:18:58.143Z,16.01
2022-09-23T05:21:31.851Z,14.55
2022-09-23T05:24:00.782Z,14.55
2022-09-23T05:26:31.082Z,16.24
2022-09-23T05:28:59.142Z,17.35
2022-09-23T05:31:29.077Z,18.26
2022-09-23T05:33:59.310Z,19.81
2022-09-23T05:36:27.556Z,20.30
2022-09-23T05:38:56.566Z,16.77
2022-09-23T05:41:25.383Z,15.06
2022-09-23T05:43:54.574Z,14.81
2022-09-23T05:46:25.444Z,14.08
2022-09-23T05:48:52.567Z,13.44
2022-09-23T05:51:30.131Z,12.90
2022-09-23T05:53:58.439Z,12.56
2022-09-23T05:56:27.758Z,12.35
2022-09-23T05:58:57.946Z,12.73
2022-09-23T06:01:28.803Z,13.40
2022-09-23T06:03:57.654Z,12.89
2022-09-23T06:06:36.099Z,13.13
2022-09-23T06:09:03.633Z,12.90
2022-09-23T06:11:32.487Z,13.20
2022-09-23T06:14:03.317Z,17.30
2022-09-23T06:16:34.047Z,19.10
2022-09-23T06:19:06.316Z,21.07
2022-09-23T06:21:36.935Z,23.16
2022-09-23T06:24:05.104Z,24.48
2022-09-23T06:26:35.370Z,25.72
2022-09-23T06:29:03.381Z,26.37
2022-09-23T06:31:30.608Z,27.32
2022-09-23T06:34:07.508Z,28.45
2022-09-23T06:36:43.410Z,27.56
2022-09-23T06:39:11.406Z,28.07
2022-09-23T06:41:39.211Z,28.32
2022-09-23T06:44:06.234Z,28.36
2022-09-23T06:46:33.578Z,28.87
2022-09-23T06:49:02.119Z,29.25
2022-09-23T06:51:29.120Z,29.87
2022-09-23T06:53:56.047Z,30.62
2022-09-23T06:56:23.792Z,30.63
2022-09-23T06:58:52.786Z,30.28
2022-09-23T07:01:20.072Z,30.09
2022-09-23T07:03:48.493Z,30.16
2022-09-23T07:06:17.242Z,29.87
2022-09-23T07:08:51.256Z,29.64
2022-09-23T07:11:22.451Z,29.14
2022-09-23T07:13:49.761Z,29.75
2022-09-23T07:16:16.813Z,30.45
2022-09-23T07:18:45.075Z,29.82
2022-09-23T07:21:16.017Z,30.32
2022-09-23T07:23:48.884Z,31.02
2022-09-23T07:26:17.184Z,31.24
2022-09-23T07:28:44.305Z,31.30
2022-09-23T07:31:17.746Z,31.17
2022-09-23T07:33:49.178Z,31.63
2022-09-23T07:36:18.956Z,31.73
2022-09-23T07:38:47.478Z,29.93
2022-09-23T07:41:18.471Z,30.02
2022-09-23T07:43:46.991Z,30.29
2022-09-23T07:46:17.638Z,30.23
2022-09-23T07:48:46.032Z,29.76
2022-09-23T07:51:34.740Z,29.33
2022-09-23T07:54:05.399Z,29.13
2022-09-23T07:56:32.392Z,29.07
2022-09-23T07:59:03.870Z,29.14
2022-09-23T08:01:38.160Z,28.95
2022-09-23T08:04:30.681Z,28.60
2022-09-23T08:07:05.646Z,27.37
2022-09-23T08:09:41.689Z,27.58
2022-09-23T08:12:16.351Z,27.40
2022-09-23T08:14:43.934Z,27.03
2022-09-23T08:17:13.124Z,26.85
2022-09-23T08:19:40.068Z,27.63
2022-09-23T08:22:07.017Z,28.04
2022-09-23T08:24:33.962Z,27.86
2022-09-23T08:27:01.110Z,27.51
2022-09-23T08:29:28.067Z,28.01
2022-09-23T08:31:55.568Z,27.69
2022-09-23T08:34:23.745Z,27.41
2022-09-23T08:36:52.431Z,27.88
2022-09-23T08:39:20.952Z,27.15
2022-09-23T08:41:59.052Z,27.36
2022-09-23T08:44:45.333Z,26.76
2022-09-23T08:47:20.951Z,26.55
2022-09-23T08:50:08.758Z,26.32
2022-09-23T08:52:55.030Z,26.49
2022-09-23T08:55:34.492Z,27.12
2022-09-23T08:58:51.245Z,26.15
2022-09-23T09:01:52.060Z,26.35
2022-09-23T09:04:43.141Z,25.17
2022-09-23T09:10:21.331Z,25.32
2022-09-23T09:13:00.322Z,24.52
2022-09-23T09:15:28.571Z,23.92
2022-09-23T09:18:05.311Z,24.28
2022-09-23T09:20:57.797Z,24.76
2022-09-23T09:23:52.034Z,25.71
2022-09-23T09:26:28.814Z,25.04
2022-09-23T09:29:23.820Z,24.12
2022-09-23T09:31:57.803Z,24.36
2022-09-23T09:34:38.255Z,25.15
2022-09-23T09:37:19.054Z,24.79
2022-09-23T09:39:46.115Z,24.47
2022-09-23T09:42:26.101Z,23.56
2022-09-23T09:45:02.212Z,23.40
2022-09-23T09:47:38.936Z,22.69
2022-09-23T09:50:10.624Z,22.84
2022-09-23T09:52:43.737Z,23.67
2022-09-23T09:55:13.548Z,23.85
2022-09-23T09:57:53.692Z,23.81
2022-09-23T10:00:26.766Z,23.90
2022-09-23T10:03:01.805Z,24.40
2022-09-23T10:05:34.918Z,24.20
2022-09-23T10:08:33.499Z,24.20
2022-09-23T10:11:07.968Z,23.89
2022-09-23T10:13:36.260Z,23.92
2022-09-23T10:16:04.277Z,23.70
2022-09-23T10:18:39.356Z,24.27
2022-09-23T10:21:14.458Z,24.77
2022-09-23T10:23:48.813Z,23.97
2022-09-23T10:26:19.075Z,23.62
2022-09-23T10:28:52.347Z,23.66
2022-09-23T10:31:34.571Z,23.74
2022-09-23T10:34:20.773Z,24.51
2022-09-23T10:37:13.767Z,24.82
2022-09-23T10:39:59.516Z,25.31
2022-09-23T10:43:20.168Z,25.03
2022-09-23T10:46:08.578Z,25.71
2022-09-23T10:48:59.845Z,25.16
2022-09-23T10:51:45.009Z,23.86
2022-09-23T10:54:46.257Z,24.84
2022-09-23T10:57:46.548Z,24.44
2022-09-23T11:00:46.960Z,24.48
2022-09-23T11:03:19.640Z,25.13
2022-09-23T11:05:48.722Z,24.68
2022-09-23T11:08:33.928Z,24.76
2022-09-23T11:11:55.603Z,25.22
2022-09-23T11:14:51.551Z,24.11
2022-09-23T11:18:07.155Z,25.04
2022-09-23T11:20:39.180Z,24.88
2022-09-23T11:23:43.335Z,24.83
2022-09-23T11:26:23.589Z,24.69
2022-09-23T11:29:22.552Z,25.29
2022-09-23T11:32:34.442Z,23.87
2022-09-23T11:35:48.562Z,23.19
2022-09-23T11:38:26.255Z,22.71
2022-09-23T11:41:01.678Z,23.69
2022-09-23T11:43:35.607Z,24.05
2022-09-23T11:46:17.777Z,23.79
2022-09-23T11:48:56.702Z,24.27
2022-09-23T11:51:39.029Z,23.20
2022-09-23T11:54:23.129Z,23.22
2022-09-23T11:57:04.824Z,22.66
2022-09-23T11:59:57.453Z,22.12
2022-09-23T12:03:00.082Z,21.95
2022-09-23T12:05:45.369Z,21.75
2022-09-23T12:08:25.549Z,21.58
2022-09-23T12:11:06.643Z,21.65
2022-09-23T12:14:11.607Z,21.95
2022-09-23T12:16:55.176Z,21.57
2022-09-23T12:20:16.109Z,21.80
2022-09-23T12:23:03.398Z,21.85
2022-09-23T12:25:57.935Z,21.56
2022-09-23T12:28:29.255Z,21.07
2022-09-23T12:31:00.516Z,21.05
2022-09-23T12:33:31.216Z,20.79
2022-09-23T12:36:08.029Z,20.43
2022-09-23T12:38:49.969Z,20.12
2022-09-23T12:41:36.576Z,19.72
2022-09-23T12:44:15.068Z,19.81
2022-09-23T12:46:44.736Z,19.86
2022-09-23T12:49:37.719Z,19.76
2022-09-23T12:52:16.765Z,19.88
2022-09-23T12:54:51.658Z,19.62
2022-09-23T12:57:33.606Z,19.65
2022-09-23T13:00:29.863Z,19.45
2022-09-23T13:03:19.141Z,19.26
2022-09-23T13:06:11.681Z,19.12
2022-09-23T13:08:42.492Z,18.84
2022-09-23T13:11:35.193Z,18.84
2022-09-23T13:14:05.291Z,18.88
2022-09-23T13:16:38.185Z,19.18
2022-09-23T13:19:26.626Z,19.06
2022-09-23T13:22:11.128Z,19.23
2022-09-23T13:25:00.282Z,18.87
2022-09-23T13:27:35.573Z,18.85
2022-09-23T13:30:21.234Z,18.85
2022-09-23T13:33:00.805Z,18.76
2022-09-23T13:35:52.911Z,18.49
2022-09-23T13:38:29.780Z,18.41
2022-09-23T13:41:23.118Z,18.49
2022-09-23T13:43:55.976Z,18.55
2022-09-23T13:46:31.407Z,18.56
2022-09-23T13:48:58.693Z,18.71
2022-09-23T13:51:36.380Z,18.65
2022-09-23T13:54:05.206Z,18.58
2022-09-23T13:56:35.379Z,18.41
2022-09-23T13:59:28.360Z,18.43
2022-09-23T14:02:16.971Z,18.52
2022-09-23T14:04:44.591Z,18.60
2022-09-23T14:07:15.576Z,18.65
2022-09-23T14:09:48.524Z,18.48
2022-09-23T14:12:22.020Z,18.44
2022-09-23T14:14:51.844Z,18.49
2022-09-23T14:17:23.022Z,18.47
2022-09-23T14:19:51.341Z,18.47
2022-09-23T14:22:29.881Z,18.23
2022-09-23T14:24:58.525Z,18.17
2022-09-23T14:27:32.144Z,18.55
2022-09-23T14:30:02.225Z,18.44
2022-09-23T14:32:30.287Z,18.35
2022-09-23T14:34:59.880Z,18.11
2022-09-23T14:38:07.270Z,17.83
2022-09-23T14:40:36.915Z,17.94
2022-09-23T14:43:30.122Z,17.94
2022-09-23T14:45:58.987Z,17.79
2022-09-23T14:48:33.816Z,17.84
2022-09-23T14:51:13.261Z,17.90
2022-09-23T14:53:49.048Z,17.73
2022-09-23T14:56:22.797Z,17.92
2022-09-23T14:59:00.100Z,17.79
2022-09-23T15:01:36.613Z,17.71
2022-09-23T15:04:21.705Z,17.77
2022-09-23T15:07:00.628Z,17.63
2022-09-23T15:09:39.357Z,17.57
2022-09-23T15:12:16.002Z,17.52
2022-09-23T15:14:54.099Z,17.27
2022-09-23T15:17:23.995Z,17.23
2022-09-23T15:19:58.269Z,17.06
2022-09-23T15:22:25.810Z,17.07
2022-09-23T15:24:55.048Z,16.85
2022-09-23T15:27:31.701Z,16.86
2022-09-23T15:30:17.194Z,16.94
2022-09-23T15:32:46.689Z,16.88
2022-09-23T15:35:17.467Z,16.75
2022-09-23T15:37:46.934Z,16.60
2022-09-23T15:40:32.880Z,16.51
2022-09-23T15:43:11.233Z,16.63
2022-09-23T15:45:44.732Z,16.51
2022-09-23T15:48:16.742Z,16.43
2022-09-23T15:50:47.453Z,16.36
2022-09-23T15:53:23.362Z,16.24
2022-09-23T15:55:51.747Z,16.23
2022-09-23T15:58:20.587Z,16.14
2022-09-23T16:00:56.861Z,16.09
2022-09-23T16:03:28.595Z,15.98
2022-09-23T16:06:00.684Z,16.05
2022-09-23T16:08:29.442Z,16.00
2022-09-23T16:10:56.787Z,16.03
2022-09-23T16:13:23.775Z,16.09
2022-09-23T16:15:50.733Z,16.00
2022-09-23T16:18:18.054Z,15.84
2022-09-23T16:20:47.375Z,15.69
2022-09-23T16:23:35.895Z,15.47
2022-09-23T16:26:15.721Z,15.37
2022-09-23T16:28:46.575Z,15.33
2022-09-23T16:31:17.658Z,15.24
2022-09-23T16:33:46.566Z,15.04
2022-09-23T16:36:27.068Z,14.92
2022-09-23T16:38:55.703Z,14.92
2022-09-23T16:41:24.773Z,14.99
2022-09-23T16:43:53.015Z,14.90
2022-09-23T16:46:21.035Z,14.88
2022-09-23T16:48:52.607Z,14.84
2022-09-23T16:51:27.117Z,14.62
2022-09-23T16:53:56.077Z,14.59
2022-09-23T16:56:28.841Z,14.63
2022-09-23T16:58:56.539Z,14.54
2022-09-23T17:01:45.354Z,14.39
2022-09-23T17:04:13.612Z,14.42
2022-09-23T17:06:45.036Z,14.35
2022-09-23T17:09:12.352Z,14.26
2022-09-23T17:11:39.769Z,14.24
2022-09-23T17:14:06.670Z,14.32
2022-09-23T17:16:34.822Z,14.20
2022-09-23T17:19:08.228Z,14.22
2022-09-23T17:21:35.687Z,14.12
2022-09-23T17:24:03.292Z,14.29
2022-09-23T17:26:30.605Z,14.22
2022-09-23T17:28:59.743Z,14.23
2022-09-23T17:31:26.871Z,14.29
2022-09-23T17:33:54.238Z,14.23
2022-09-23T17:36:21.647Z,14.31
2022-09-23T17:38:53.721Z,14.27
2022-09-23T17:41:21.486Z,14.28
2022-09-23T17:43:55.024Z,14.21
2022-09-23T17:46:22.188Z,14.27
2022-09-23T17:48:49.131Z,14.18
2022-09-23T17:51:21.654Z,14.29
2022-09-23T17:53:49.752Z,14.35
2022-09-23T17:56:29.855Z,14.22
2022-09-23T17:59:04.518Z,14.21
2022-09-23T18:01:31.950Z,14.21
2022-09-23T18:04:02.129Z,14.27
2022-09-23T18:06:31.847Z,14.22
2022-09-23T18:09:06.737Z,14.20
2022-09-23T18:11:37.574Z,14.15
2022-09-23T18:14:15.511Z,14.14
2022-09-23T18:16:45.743Z,13.93
2022-09-23T18:19:16.014Z,13.88
2022-09-23T18:21:50.500Z,13.86
2022-09-23T18:24:34.781Z,13.88
2022-09-23T18:27:02.245Z,13.88
2022-09-23T18:29:29.682Z,13.84
2022-09-23T18:31:56.858Z,13.94
2022-09-23T18:34:24.321Z,13.84
2022-09-23T18:36:51.570Z,13.89
2022-09-23T18:39:18.545Z,13.90
2022-09-23T18:41:45.533Z,13.85
2022-09-23T18:44:12.587Z,13.82
2022-09-23T18:46:39.729Z,13.82
2022-09-23T18:49:25.392Z,13.88
2022-09-23T18:51:55.652Z,13.80
2022-09-23T18:54:25.462Z,13.90
2022-09-23T18:56:55.568Z,13.94
2022-09-23T18:59:25.426Z,13.86
2022-09-23T19:01:55.539Z,13.84
2022-09-23T19:04:25.512Z,13.76
2022-09-23T19:06:53.979Z,13.87
2022-09-23T19:09:21.035Z,13.73
2022-09-23T19:11:52.398Z,13.75
2022-09-23T19:14:20.051Z,13.68
2022-09-23T19:16:49.030Z,13.84
2022-09-23T19:19:16.102Z,13.72
2022-09-23T19:21:43.517Z,13.75
2022-09-23T19:24:16.190Z,13.83
2022-09-23T19:26:44.307Z,13.76
2022-09-23T19:29:19.586Z,13.75
2022-09-23T19:31:46.781Z,13.69
2022-09-23T19:34:20.009Z,13.71
2022-09-23T19:36:47.742Z,13.68
2022-09-23T19:39:30.619Z,13.87
2022-09-23T19:41:59.001Z,13.72
2022-09-23T19:44:26.971Z,13.65
2022-09-23T19:46:56.774Z,13.76
2022-09-23T19:49:25.080Z,13.71
2022-09-23T19:51:56.222Z,13.67
2022-09-23T19:54:27.488Z,13.49
2022-09-23T19:56:55.152Z,13.63
2022-09-23T19:59:22.144Z,13.51
2022-09-23T20:01:49.562Z,13.43
2022-09-23T20:04:17.093Z,13.56
2022-09-23T20:06:44.068Z,13.36
2022-09-23T20:09:11.509Z,13.22
2022-09-23T20:11:38.864Z,13.28
2022-09-23T20:14:06.550Z,13.43
2022-09-23T20:16:36.968Z,13.42
2022-09-23T20:19:05.676Z,13.29
2022-09-23T20:21:33.744Z,13.11
2022-09-23T20:24:01.436Z,13.18
2022-09-23T20:26:47.424Z,13.09
2022-09-23T20:29:14.543Z,13.11
2022-09-23T20:31:41.737Z,13.08
2022-09-23T20:34:10.610Z,12.99
2022-09-23T20:36:40.018Z,12.92
2022-09-23T20:39:07.499Z,12.77
2022-09-23T20:41:38.012Z,12.77
2022-09-23T20:44:14.080Z,12.84
2022-09-23T20:46:48.098Z,12.71
2022-09-23T20:49:17.361Z,12.59
2022-09-23T20:51:44.605Z,12.60
2022-09-23T20:54:12.310Z,12.54
2022-09-23T20:56:39.443Z,12.48
2022-09-23T20:59:06.718Z,12.35
2022-09-23T21:01:35.300Z,12.29
2022-09-23T21:04:08.010Z,12.07
2022-09-23T21:06:37.474Z,12.08
2022-09-23T21:09:05.623Z,12.09
2022-09-23T21:11:32.634Z,11.90
2022-09-23T21:14:01.126Z,11.81
2022-09-23T21:16:28.782Z,11.87
2022-09-23T21:18:56.053Z,11.84
2022-09-23T21:21:23.045Z,11.75
2022-09-23T21:23:50.867Z,11.79
2022-09-23T21:26:23.877Z,11.75
2022-09-23T21:28:53.719Z,11.57
2022-09-23T21:31:25.783Z,11.57
2022-09-23T21:34:01.580Z,11.52
2022-09-23T21:36:34.659Z,11.30
2022-09-23T21:39:04.579Z,11.24
2022-09-23T21:41:32.501Z,11.29
2022-09-23T21:44:00.382Z,11.38
2022-09-23T21:46:28.327Z,11.34
2022-09-23T21:48:58.225Z,11.33
2022-09-23T21:51:36.582Z,11.31
2022-09-23T21:54:03.850Z,11.30
2022-09-23T21:56:37.850Z,11.24
2022-09-23T21:59:05.819Z,11.06
2022-09-23T22:01:38.275Z,11.16
2022-09-23T22:04:18.626Z,11.12
2022-09-23T22:06:46.786Z,11.28
2022-09-23T22:09:20.418Z,11.22
2022-09-23T22:12:09.675Z,10.95
2022-09-23T22:14:36.912Z,11.00
2022-09-23T22:17:05.847Z,11.09
2022-09-23T22:19:40.336Z,10.96
2022-09-23T22:22:13.330Z,10.81
2022-09-23T22:24:45.109Z,10.93
2022-09-23T22:27:16.000Z,10.71
2022-09-23T22:30:02.469Z,10.75
2022-09-23T22:32:41.911Z,10.63
2022-09-23T22:35:17.690Z,10.54
2022-09-23T22:37:45.326Z,10.55
2022-09-23T22:40:14.863Z,10.40
2022-09-23T22:42:43.121Z,10.49
2022-09-23T22:45:11.861Z,10.65
2022-09-23T22:47:41.019Z,10.47
2022-09-23T22:50:09.480Z,10.52
2022-09-23T22:52:37.915Z,10.48
2022-09-23T22:55:08.090Z,10.53
2022-09-23T22:57:35.333Z,10.47
2022-09-23T23:00:05.568Z,10.30
2022-09-23T23:02:33.100Z,10.35
2022-09-23T23:05:00.497Z,10.23
2022-09-23T23:07:27.555Z,10.26
2022-09-23T23:09:54.546Z,10.20
2022-09-23T23:12:21.736Z,10.21
2022-09-23T23:14:49.543Z,10.12
2022-09-23T23:17:17.324Z,10.22
2022-09-23T23:19:44.559Z,10.11
2022-09-23T23:22:11.604Z,9.98
2022-09-23T23:24:38.624Z,10.11
2022-09-23T23:27:05.583Z,9.89
2022-09-23T23:29:32.545Z,9.94
2022-09-23T23:31:59.621Z,9.93
2022-09-23T23:34:26.592Z,10.13
2022-09-23T23:36:55.098Z,9.76
2022-09-23T23:39:24.163Z,9.80
2022-09-23T23:41:56.765Z,9.84
2022-09-23T23:44:25.458Z,9.85
2022-09-23T23:46:55.664Z,9.75
2022-09-23T23:49:22.924Z,9.73
2022-09-23T23:51:50.042Z,9.80
2022-09-23T23:54:17.053Z,9.83
2022-09-23T23:56:44.088Z,9.54
2022-09-23T23:59:11.432Z,9.51
